Time;durP1;ratioP1;P1;durP2;ratioP2;P2;SDS_P1;SDS_P2;PMS_P1;PMS_P2;Temp;Humidity;BMP_temperature;BMP_pressure;BME280_temperature;BME280_humidity;BME280_pressure;Samples;Min_cycle;Max_cycle;Signal;HPM_P1;HPM_P2
2022/04/01 00:01:55;;;;;;;23.63;17.77;;;;;;;9.90;61.92;97314.25;4126126;28;20234;-32
2022/04/01 00:03:57;;;;;;;22.87;16.43;;;;;;;10.73;59.79;97318.47;4127693;28;20610;-32
2022/04/01 00:05:58;;;;;;;26.13;17.80;;;;;;;10.65;59.35;97286.06;4134469;28;20230;-32
2022/04/01 00:08:01;;;;;;;23.43;17.80;;;;;;;11.13;58.55;97309.31;4125966;28;20555;-32
2022/04/01 00:10:03;;;;;;;24.20;17.13;;;;;;;10.73;60.13;97320.34;4125822;28;20226;-31
2022/04/01 00:12:06;;;;;;;23.40;17.47;;;;;;;11.62;57.23;97304.00;4121502;28;20297;-32
2022/04/01 00:14:08;;;;;;;24.07;18.37;;;;;;;11.94;55.99;97285.94;4128388;28;20237;-32
2022/04/01 00:16:09;;;;;;;22.50;17.53;;;;;;;11.23;57.45;97276.88;4125834;28;20558;-32
2022/04/01 00:18:11;;;;;;;24.87;17.73;;;;;;;11.81;56.55;97305.56;4127934;28;20234;-32
2022/04/01 00:20:14;;;;;;;25.00;18.67;;;;;;;11.39;57.56;97308.16;4129080;28;20703;-32
2022/04/01 00:22:15;;;;;;;24.83;18.20;;;;;;;11.66;56.46;97279.38;4130894;28;20237;-31
2022/04/01 00:24:17;;;;;;;24.47;17.43;;;;;;;11.35;57.81;97321.09;4125014;28;20226;-32
2022/04/01 00:26:19;;;;;;;24.10;18.47;;;;;;;11.40;57.01;97285.84;4119612;28;20230;-32
2022/04/01 00:28:21;;;;;;;27.70;18.80;;;;;;;11.35;57.77;97301.69;4128647;28;20235;-31
2022/04/01 00:30:22;;;;;;;23.87;17.80;;;;;;;10.62;59.82;97306.72;4129954;28;20230;-32
2022/04/01 00:32:25;;;;;;;27.00;17.67;;;;;;;11.13;58.55;97306.66;4129543;28;20234;-31
2022/04/01 00:34:28;;;;;;;22.73;16.97;;;;;;;11.01;58.74;97284.50;4128238;28;20727;-32
2022/04/01 00:36:30;;;;;;;28.10;18.50;;;;;;;10.63;61.08;97350.06;4132113;28;20225;-32
2022/04/01 00:38:31;;;;;;;25.37;17.43;;;;;;;11.60;57.49;97304.22;4131858;28;20233;-32
2022/04/01 00:40:35;;;;;;;22.47;17.10;;;;;;;11.97;56.33;97288.16;4128228;28;20703;-31
2022/04/01 00:42:37;;;;;;;26.17;18.83;;;;;;;12.15;55.73;97270.47;4128936;28;20728;-31
2022/04/01 00:44:40;;;;;;;24.50;17.53;;;;;;;11.98;56.24;97280.97;4128968;28;20647;-31
2022/04/01 00:46:43;;;;;;;24.47;18.27;;;;;;;11.77;56.74;97269.78;4132830;28;20698;-32
2022/04/01 00:48:45;;;;;;;22.20;16.90;;;;;;;11.87;56.47;97279.91;4128179;28;20222;-32
2022/04/01 00:50:48;;;;;;;25.63;19.13;;;;;;;11.40;57.92;97317.78;4119621;28;20303;-31
2022/04/01 00:52:50;;;;;;;26.07;18.57;;;;;;;10.47;60.34;97292.19;4122098;28;20253;-32
2022/04/01 00:54:52;;;;;;;27.17;18.50;;;;;;;10.77;60.33;97334.84;4128380;28;20234;-32
2022/04/01 00:56:54;;;;;;;25.87;18.83;;;;;;;11.40;58.21;97303.69;4128797;28;20237;-32
2022/04/01 00:58:56;;;;;;;27.00;19.00;;;;;;;11.11;59.18;97320.16;4127210;28;20286;-32
2022/04/01 01:00:59;;;;;;;25.53;18.67;;;;;;;11.46;58.03;97295.59;4127887;28;20234;-32
2022/04/01 01:03:01;;;;;;;27.17;18.97;;;;;;;11.48;57.89;97293.53;4128220;28;20210;-32
2022/04/01 01:05:03;;;;;;;26.83;19.27;;;;;;;11.18;58.83;97288.19;4128754;28;20312;-32
2022/04/01 01:07:05;;;;;;;26.47;19.37;;;;;;;11.21;58.61;97297.53;4128019;28;20238;-31
2022/04/01 01:09:14;;;;;;;24.97;18.83;;;;;;;10.73;58.71;97285.78;4121557;28;20649;-32
2022/04/01 01:11:16;;;;;;;25.17;18.80;;;;;;;11.52;57.34;97293.88;4128283;28;20233;-32
2022/04/01 01:13:18;;;;;;;25.80;19.33;;;;;;;10.78;59.91;97312.53;4127619;28;20245;-32
2022/04/01 01:15:20;;;;;;;24.60;19.30;;;;;;;11.14;58.74;97311.75;4128426;28;20877;-32
2022/04/01 01:17:21;;;;;;;27.63;19.23;;;;;;;11.19;58.70;97311.09;4128527;28;20237;-32
2022/04/01 01:19:23;;;;;;;29.53;20.20;;;;;;;10.70;59.64;97297.69;4128282;28;20712;-32
2022/04/01 01:21:26;;;;;;;27.70;20.07;;;;;;;10.33;60.58;97288.81;4127161;28;20797;-31
2022/04/01 01:23:32;;;;;;;28.20;19.63;;;;;;;9.62;62.75;97304.84;4126480;28;20245;-32
2022/04/01 01:25:36;;;;;;;25.40;19.30;;;;;;;10.20;62.37;97348.97;4128157;28;20222;-32
2022/04/01 01:27:39;;;;;;;25.50;19.23;;;;;;;10.01;62.52;97334.81;4127563;28;20230;-32
2022/04/01 01:29:42;;;;;;;25.70;19.13;;;;;;;9.36;63.96;97315.56;4128244;28;20237;-31
2022/04/01 01:31:45;;;;;;;26.57;19.60;;;;;;;10.14;62.68;97341.84;4128244;28;20234;-32
2022/04/01 01:33:49;;;;;;;27.87;20.10;;;;;;;10.61;60.80;97307.75;4127231;28;20608;-32
2022/04/01 01:35:51;;;;;;;24.00;19.50;;;;;;;10.02;61.92;97298.44;4128514;28;20719;-31
2022/04/01 01:37:52;;;;;;;26.37;20.43;;;;;;;9.57;63.28;97330.34;4126852;28;20289;-32
2022/04/01 01:39:55;;;;;;;29.33;21.07;;;;;;;9.42;64.23;97365.91;4122280;28;20261;-32
2022/04/01 01:41:56;;;;;;;28.23;21.30;;;;;;;9.46;62.02;97298.16;4124664;28;20722;-32
2022/04/01 01:43:59;;;;;;;29.47;21.33;;;;;;;9.95;62.61;97350.78;4127692;28;20289;-32
2022/04/01 01:46:00;;;;;;;27.57;20.57;;;;;;;10.36;61.52;97313.13;4126032;28;20734;-32
2022/04/01 01:48:03;;;;;;;25.73;19.50;;;;;;;10.35;60.91;97323.97;4124045;28;20238;-32
2022/04/01 01:54:49;;;;;;;26.93;21.13;;;;;;;10.66;58.68;97267.25;4127364;28;20694;-32
2022/04/01 01:56:51;;;;;;;28.87;20.70;;;;;;;9.35;62.91;97332.47;4127936;28;20284;-32
2022/04/01 01:58:54;;;;;;;25.80;20.43;;;;;;;9.82;62.32;97349.00;4125940;28;20237;-32
2022/04/01 02:00:56;;;;;;;27.23;21.03;;;;;;;9.38;63.99;97347.97;4126954;28;20381;-32
2022/04/01 02:02:58;;;;;;;24.87;19.47;;;;;;;9.56;63.45;97357.91;4128986;28;20230;-32
2022/04/01 02:05:00;;;;;;;25.07;19.53;;;;;;;9.82;63.07;97349.84;4128112;28;20241;-31
2022/04/01 02:07:03;;;;;;;26.80;19.77;;;;;;;9.51;62.73;97311.59;4127089;28;20230;-32
2022/04/01 02:09:05;;;;;;;23.40;18.97;;;;;;;9.53;63.17;97340.56;4127831;28;20239;-32
2022/04/01 02:11:07;;;;;;;23.37;18.33;;;;;;;9.47;63.96;97374.06;4127755;28;20230;-32
2022/04/01 02:13:09;;;;;;;24.73;19.67;;;;;;;8.58;65.07;97331.25;4122371;28;20714;-31
2022/04/01 02:15:11;;;;;;;23.43;19.00;;;;;;;8.75;65.53;97366.06;4127878;28;20234;-32
2022/04/01 02:17:13;;;;;;;24.33;19.43;;;;;;;8.60;65.44;97341.63;4127317;28;20293;-31
2022/04/01 02:19:21;;;;;;;22.30;18.77;;;;;;;8.87;66.02;97389.31;4127359;28;20985;-31
2022/04/01 02:21:23;;;;;;;23.87;18.47;;;;;;;9.57;63.40;97351.56;4127701;28;20241;-32
2022/04/01 02:23:25;;;;;;;25.97;20.07;;;;;;;9.52;63.92;97355.66;4127152;28;20242;-31
2022/04/01 02:25:27;;;;;;;25.80;20.07;;;;;;;9.85;62.15;97322.84;4125398;28;20240;-32
2022/04/01 02:27:29;;;;;;;25.97;20.13;;;;;;;9.95;62.53;97340.97;4126360;28;20270;-32
2022/04/01 02:29:31;;;;;;;25.43;18.33;;;;;;;9.98;60.96;97292.75;4127398;28;20231;-31
2022/04/01 02:31:32;;;;;;;24.50;19.13;;;;;;;8.90;64.86;97379.09;4127797;28;20242;-31
2022/04/01 02:33:35;;;;;;;25.83;20.07;;;;;;;9.81;61.28;97300.44;4126110;28;20249;-32
2022/04/01 02:35:37;;;;;;;24.50;19.20;;;;;;;10.95;59.28;97296.81;4131580;28;20234;-31
2022/04/01 02:37:40;;;;;;;25.53;20.17;;;;;;;10.67;59.27;97260.06;4131079;28;20609;-30
2022/04/01 02:39:41;;;;;;;26.40;19.83;;;;;;;10.23;60.06;97271.53;4126555;28;20317;-32
2022/04/01 02:41:44;;;;;;;26.77;21.20;;;;;;;10.40;60.21;97308.19;4127124;28;20233;-31
2022/04/01 02:43:46;;;;;;;28.70;21.03;;;;;;;10.75;59.34;97297.00;4126891;28;20242;-32
2022/04/01 02:45:48;;;;;;;24.80;20.07;;;;;;;9.58;62.23;97316.06;4126460;28;20245;-32
2022/04/01 02:47:51;;;;;;;27.60;20.63;;;;;;;10.28;60.72;97312.56;4126039;28;20245;-32
2022/04/01 02:49:53;;;;;;;25.60;20.50;;;;;;;10.00;62.49;97358.91;4127182;28;20292;-33
2022/04/01 02:51:55;;;;;;;26.70;20.97;;;;;;;10.25;61.40;97330.56;4127155;28;20457;-31
2022/04/01 02:53:56;;;;;;;24.87;19.20;;;;;;;9.58;63.04;97339.94;4128229;28;20234;-33
2022/04/01 02:55:58;;;;;;;25.97;20.10;;;;;;;9.98;61.13;97306.03;4126896;28;20241;-31
2022/04/01 02:58:00;;;;;;;28.53;21.63;;;;;;;10.63;60.45;97318.16;4127076;28;20226;-31
2022/04/01 03:00:09;;;;;;;24.37;19.47;;;;;;;10.74;59.87;97314.00;4126721;28;20778;-33
2022/04/01 03:02:11;;;;;;;25.13;19.07;;;;;;;10.50;59.69;97305.84;4121391;28;20701;-33
2022/04/01 03:04:13;;;;;;;22.80;18.30;;;;;;;10.59;59.26;97312.47;4127180;28;20249;-32
2022/04/01 03:06:15;;;;;;;23.93;19.83;;;;;;;10.70;59.03;97302.16;4126531;28;20690;-32
2022/04/01 03:08:17;;;;;;;26.63;20.93;;;;;;;10.79;58.05;97299.03;4125882;28;20257;-32
2022/04/01 03:10:23;;;;;;;24.77;19.20;;;;;;;10.76;57.55;97296.00;4126973;28;20261;-33
2022/04/01 03:12:25;;;;;;;26.93;20.57;;;;;;;11.01;57.31;97308.44;4125937;28;20321;-32
2022/04/01 03:14:27;;;;;;;25.07;19.23;;;;;;;10.28;58.25;97288.66;4126781;28;20246;-33
2022/04/01 03:16:29;;;;;;;24.33;20.00;;;;;;;10.62;57.72;97311.25;4125315;28;20517;-32
2022/04/01 03:18:31;;;;;;;25.73;20.07;;;;;;;10.33;58.98;97333.97;4123244;28;20253;-33
2022/04/01 03:20:35;;;;;;;24.47;19.30;;;;;;;9.87;60.08;97338.56;4126171;28;20681;-32
2022/04/01 03:22:37;;;;;;;23.83;18.77;;;;;;;10.56;58.24;97322.75;4121300;28;20236;-32
2022/04/01 03:24:38;;;;;;;22.43;18.83;;;;;;;10.61;58.21;97329.00;4126140;28;20226;-33
2022/04/01 03:26:40;;;;;;;24.43;18.93;;;;;;;11.23;56.50;97308.78;4125986;28;20794;-32
2022/04/01 03:28:42;;;;;;;24.97;19.73;;;;;;;10.99;57.23;97312.13;4121735;28;20240;-33
2022/04/01 03:30:44;;;;;;;25.33;20.07;;;;;;;11.11;56.56;97293.56;4125254;28;20248;-32
2022/04/01 03:32:45;;;;;;;23.53;19.37;;;;;;;10.71;57.09;97301.13;4125840;28;20284;-30
2022/04/01 03:34:47;;;;;;;26.83;20.53;;;;;;;10.48;57.13;97310.56;4125469;28;20229;-31
2022/04/01 03:36:49;;;;;;;27.37;20.20;;;;;;;11.10;56.08;97315.88;4120274;28;20238;-32
2022/04/01 03:38:51;;;;;;;26.07;20.23;;;;;;;10.72;57.06;97316.88;4122363;28;20754;-31
2022/04/01 03:40:54;;;;;;;26.33;20.33;;;;;;;10.85;56.95;97323.09;4120012;28;20238;-32
2022/04/01 03:42:55;;;;;;;21.70;17.67;;;;;;;10.84;57.00;97330.28;4120934;28;20258;-30
2022/04/01 03:45:03;;;;;;;23.90;19.27;;;;;;;11.48;55.54;97320.13;4119935;28;20237;-30
2022/04/01 03:47:11;;;;;;;24.67;20.07;;;;;;;11.27;55.89;97317.94;4114752;28;20904;-32
2022/04/01 03:49:17;;;;;;;22.60;18.47;;;;;;;11.27;55.83;97329.38;4124783;28;20657;-33
2022/04/01 03:51:28;;;;;;;24.50;18.23;;;;;;;11.12;56.09;97326.28;4122483;28;20241;-30
2022/04/01 03:53:31;;;;;;;23.60;17.90;;;;;;;11.13;55.70;97304.00;4124144;28;20296;-32
2022/04/01 03:55:38;;;;;;;21.90;17.83;;;;;;;11.10;55.46;97296.47;4123978;28;20311;-32
2022/04/01 03:57:41;;;;;;;23.00;18.87;;;;;;;10.97;56.53;97329.31;4123528;28;20229;-31
2022/04/01 03:59:47;;;;;;;24.17;19.00;;;;;;;10.79;56.69;97341.56;4124025;28;20268;-33
2022/04/01 04:01:48;;;;;;;23.13;18.50;;;;;;;11.00;56.01;97336.84;4124008;28;20256;-31
2022/04/01 04:03:50;;;;;;;23.23;18.20;;;;;;;10.92;56.07;97331.81;4125765;28;20234;-30
2022/04/01 04:05:53;;;;;;;23.50;19.03;;;;;;;11.06;55.65;97319.22;4128442;28;20350;-32
2022/04/01 04:07:56;;;;;;;23.60;18.13;;;;;;;11.32;55.15;97324.22;4129792;28;20345;-32
2022/04/01 04:09:59;;;;;;;24.40;19.03;;;;;;;10.41;57.45;97339.00;4128449;28;20233;-32
2022/04/01 04:12:01;;;;;;;23.00;17.90;;;;;;;10.95;55.68;97318.09;4128512;28;20237;-31
2022/04/01 04:14:04;;;;;;;27.57;19.83;;;;;;;11.15;55.72;97310.69;4128279;28;20245;-32
2022/04/01 04:16:18;;;;;;;24.97;18.80;;;;;;;11.22;55.54;97334.56;4129377;28;20616;-33
2022/04/01 04:18:24;;;;;;;23.57;18.23;;;;;;;11.64;54.81;97336.53;4127725;28;20225;-31
2022/04/01 04:20:34;;;;;;;23.60;19.07;;;;;;;10.97;55.72;97314.19;4128530;28;20233;-31
2022/04/01 04:22:55;;;;;;;23.20;18.70;;;;;;;11.27;55.46;97352.53;4127252;28;20248;-31
2022/04/01 04:24:58;;;;;;;26.13;19.80;;;;;;;11.30;54.88;97323.63;4125447;28;20238;-33
2022/04/01 04:27:12;;;;;;;23.53;18.60;;;;;;;10.11;57.18;97337.00;4127364;28;20261;-31
2022/04/01 04:29:16;;;;;;;25.80;20.13;;;;;;;10.92;55.98;97359.25;4128047;28;20280;-32
2022/04/01 04:31:29;;;;;;;24.93;19.27;;;;;;;10.67;56.31;97355.75;4126956;28;20272;-32
2022/04/01 04:33:31;;;;;;;24.50;17.67;;;;;;;10.98;55.72;97338.94;4128244;28;20312;-31
2022/04/01 04:35:39;;;;;;;23.40;18.63;;;;;;;11.18;55.44;97344.03;4129023;28;20233;-31
2022/04/01 04:37:46;;;;;;;25.60;19.80;;;;;;;10.67;56.83;97363.72;4128267;28;20744;-32
2022/04/01 04:39:48;;;;;;;24.40;18.80;;;;;;;10.63;56.39;97350.06;4129229;28;20862;-31
2022/04/01 04:41:51;;;;;;;24.83;19.73;;;;;;;11.00;55.80;97350.16;4127911;28;20245;-31
2022/04/01 04:43:53;;;;;;;24.57;18.77;;;;;;;10.63;56.45;97363.34;4128021;28;20245;-32
2022/04/01 04:45:59;;;;;;;26.33;19.60;;;;;;;10.92;55.62;97337.13;4129035;28;20234;-32
2022/04/01 04:48:03;;;;;;;25.50;19.67;;;;;;;10.99;55.74;97354.66;4128888;28;20262;-32
2022/04/01 04:50:06;;;;;;;26.13;19.57;;;;;;;10.84;56.39;97366.69;4132945;28;20233;-32
2022/04/01 04:52:09;;;;;;;24.00;18.67;;;;;;;11.21;55.41;97354.22;4128665;28;20292;-32
2022/04/01 04:54:11;;;;;;;25.07;20.10;;;;;;;9.93;57.16;97344.88;4120231;28;20612;-31
2022/04/01 04:56:14;;;;;;;25.07;20.23;;;;;;;10.39;57.28;97404.81;4128364;28;20667;-32
2022/04/01 04:58:18;;;;;;;25.30;19.27;;;;;;;10.53;56.42;97386.94;4128351;28;20325;-32
2022/04/01 05:00:20;;;;;;;25.10;19.57;;;;;;;10.43;55.97;97355.53;4128902;28;20245;-32
2022/04/01 05:02:31;;;;;;;24.90;19.30;;;;;;;10.80;56.18;97398.19;4128121;28;20348;-33
2022/04/01 05:04:55;;;;;;;26.57;21.03;;;;;;;11.21;55.09;97370.19;4127692;28;20241;-32
2022/04/01 05:07:29;;;;;;;25.57;20.60;;;;;;;10.38;57.37;97424.44;4128239;28;20230;-32
2022/04/01 05:09:42;;;;;;;25.23;19.17;;;;;;;10.39;57.73;97416.25;4124447;28;20285;-33
2022/04/01 05:12:05;;;;;;;24.53;19.20;;;;;;;10.14;57.57;97396.81;4127957;28;20237;-31
2022/04/01 05:14:13;;;;;;;24.20;19.40;;;;;;;10.91;56.15;97399.34;4129652;28;20261;-32
2022/04/01 05:16:43;;;;;;;25.27;19.70;;;;;;;11.11;55.53;97391.19;4119523;28;20257;-32
2022/04/01 05:19:03;;;;;;;24.73;20.03;;;;;;;10.93;55.82;97413.22;4128307;28;20292;-30
2022/04/01 05:21:18;;;;;;;24.80;20.03;;;;;;;10.04;57.50;97395.47;4128222;28;20230;-32
2022/04/01 05:23:30;;;;;;;22.60;18.57;;;;;;;10.18;58.13;97451.16;4127338;28;20316;-32
2022/04/01 05:25:40;;;;;;;24.00;18.83;;;;;;;10.36;57.10;97422.03;4128343;28;20300;-32
2022/04/01 05:27:47;;;;;;;23.13;18.77;;;;;;;9.41;58.94;97421.81;4126612;28;20588;-32
2022/04/01 05:30:02;;;;;;;25.20;20.03;;;;;;;10.77;56.44;97427.88;4123694;28;20374;-32
2022/04/01 05:32:05;;;;;;;24.33;19.63;;;;;;;9.91;58.47;97459.25;4127289;28;20233;-31
2022/04/01 05:34:44;;;;;;;23.90;19.20;;;;;;;9.32;59.90;97448.56;4128055;28;20625;-32
2022/04/01 05:36:49;;;;;;;24.07;18.67;;;;;;;10.12;58.12;97444.81;4107169;28;20590;-31
2022/04/01 05:38:54;;;;;;;24.37;19.60;;;;;;;8.81;60.37;97427.22;4137793;28;20246;-32
2022/04/01 05:40:56;;;;;;;23.80;19.13;;;;;;;9.20;60.74;97482.03;4126308;28;20237;-33
2022/04/01 05:43:00;;;;;;;25.13;19.30;;;;;;;9.19;61.09;97508.75;4125548;28;20311;-32
2022/04/01 05:45:02;;;;;;;23.90;18.67;;;;;;;8.62;60.10;97423.53;4127752;28;20242;-32
2022/04/01 05:47:06;;;;;;;24.13;18.67;;;;;;;8.55;61.05;97445.53;4127874;28;20237;-32
2022/04/01 05:49:08;;;;;;;23.70;18.77;;;;;;;9.73;58.21;97438.69;4127461;28;20249;-33
2022/04/01 05:51:14;;;;;;;23.53;19.87;;;;;;;9.65;59.59;97481.38;4120250;28;20320;-33
2022/04/01 05:53:20;;;;;;;24.93;20.43;;;;;;;9.71;57.78;97448.69;4125038;28;20234;-30
2022/04/01 05:55:26;;;;;;;24.33;19.93;;;;;;;9.64;57.97;97485.06;4125808;28;20264;-32
2022/04/01 05:57:27;;;;;;;24.00;20.27;;;;;;;9.37;58.22;97493.03;4127663;28;20863;-33
2022/04/01 05:59:29;;;;;;;22.80;19.60;;;;;;;9.30;57.82;97473.66;4128265;28;20937;-32
2022/04/01 06:01:41;;;;;;;22.90;19.83;;;;;;;9.96;56.89;97479.81;4126661;28;20343;-32
2022/04/01 06:04:07;;;;;;;26.83;20.87;;;;;;;9.60;57.49;97491.78;4127450;28;20265;-33
2022/04/01 06:06:43;;;;;;;25.73;20.40;;;;;;;8.76;59.97;97513.44;4125157;28;20284;-33
2022/04/01 06:09:00;;;;;;;23.33;19.03;;;;;;;8.37;60.31;97509.69;4115327;28;20244;-32
2022/04/01 06:11:31;;;;;;;24.07;19.80;;;;;;;9.36;59.23;97530.38;4113022;28;20222;-32
2022/04/01 06:13:35;;;;;;;25.97;21.37;;;;;;;8.93;58.88;97526.31;4126408;28;20230;-30
2022/04/01 06:16:02;;;;;;;25.00;22.10;;;;;;;9.14;58.49;97523.44;4127037;28;20299;-30
2022/04/01 06:18:26;;;;;;;24.20;21.20;;;;;;;9.35;57.21;97518.94;4135090;28;20279;-31
2022/04/01 06:20:30;;;;;;;25.17;21.03;;;;;;;8.90;57.86;97490.41;4123598;28;20225;-31
2022/04/01 06:22:36;;;;;;;25.17;20.70;;;;;;;9.27;57.21;97506.72;4122272;28;20234;-32
2022/04/01 06:25:03;;;;;;;24.40;19.80;;;;;;;9.36;56.60;97501.19;4125004;28;20229;-32
2022/04/01 06:27:08;;;;;;;23.90;20.03;;;;;;;9.39;56.26;97501.59;4116600;28;20702;-32
2022/04/01 06:29:31;;;;;;;24.00;20.10;;;;;;;9.39;57.01;97524.66;4127337;28;20261;-32
2022/04/01 06:31:33;;;;;;;22.83;19.03;;;;;;;8.71;58.35;97568.88;4127248;28;20765;-32
2022/04/01 06:33:48;;;;;;;22.30;18.63;;;;;;;9.02;57.60;97561.38;4125958;28;20758;-32
2022/04/01 06:35:56;;;;;;;21.60;18.00;;;;;;;8.23;59.36;97573.34;4127216;28;20263;-30
2022/04/01 06:38:04;;;;;;;20.77;18.33;;;;;;;8.91;57.53;97560.13;4125118;28;20252;-31
2022/04/01 06:40:10;;;;;;;24.40;20.10;;;;;;;9.04;56.48;97546.88;4126193;28;20240;-31
2022/04/01 06:42:19;;;;;;;22.07;19.60;;;;;;;9.27;57.22;97558.94;4123408;28;20230;-31
2022/04/01 06:44:21;;;;;;;22.03;18.73;;;;;;;9.02;56.49;97535.69;4120251;28;20260;-31
2022/04/01 06:46:23;;;;;;;21.90;19.33;;;;;;;9.02;56.85;97566.69;4119035;28;20241;-30
2022/04/01 06:48:25;;;;;;;21.53;19.23;;;;;;;8.22;57.21;97516.94;4126267;28;20230;-32
2022/04/01 06:50:27;;;;;;;21.17;18.43;;;;;;;8.63;56.14;97557.66;4127308;28;20237;-30
2022/04/01 06:52:30;;;;;;;22.77;20.37;;;;;;;8.56;56.23;97568.22;4124404;28;20648;-31
2022/04/01 06:54:32;;;;;;;20.60;18.23;;;;;;;8.84;57.10;97581.31;4122277;28;20683;-32
2022/04/01 06:56:34;;;;;;;21.50;19.27;;;;;;;9.19;55.55;97559.94;4122677;28;20706;-32
2022/04/01 06:58:36;;;;;;;20.77;18.43;;;;;;;8.81;55.24;97518.13;4126134;28;20280;-32
2022/04/01 07:00:41;;;;;;;21.13;17.80;;;;;;;7.15;59.95;97549.91;4126577;28;20241;-31
2022/04/01 07:02:46;;;;;;;23.93;19.27;;;;;;;9.27;55.92;97565.06;4125831;28;20249;-33
2022/04/01 07:04:48;;;;;;;19.77;17.47;;;;;;;8.23;58.40;97589.25;4126822;28;20276;-31
2022/04/01 07:06:50;;;;;;;19.90;17.57;;;;;;;7.83;59.22;97588.03;4126322;28;20812;-31
2022/04/01 07:08:53;;;;;;;21.30;17.60;;;;;;;8.77;56.05;97597.19;4125648;28;20349;-33
2022/04/01 07:10:58;;;;;;;20.53;17.80;;;;;;;8.51;56.32;97562.72;4124333;28;20848;-32
2022/04/01 07:13:11;;;;;;;20.77;18.23;;;;;;;8.91;55.42;97533.63;4125772;28;20237;-32
2022/04/01 07:15:18;;;;;;;19.53;17.20;;;;;;;9.24;55.71;97575.25;4124198;28;20773;-31
2022/04/01 07:17:20;;;;;;;18.87;16.97;;;;;;;9.14;56.23;97580.94;4126809;28;20234;-31
2022/04/01 07:19:22;;;;;;;19.13;17.03;;;;;;;9.13;55.60;97558.09;4127741;28;20844;-33
2022/04/01 07:21:24;;;;;;;18.83;16.90;;;;;;;7.93;58.23;97532.09;4130285;28;20533;-33
2022/04/01 07:23:26;;;;;;;19.93;17.83;;;;;;;8.84;56.08;97583.97;4129781;28;20234;-32
2022/04/01 07:25:28;;;;;;;20.70;18.13;;;;;;;8.90;56.13;97574.41;4128618;28;20245;-31
2022/04/01 07:27:30;;;;;;;20.67;17.77;;;;;;;8.82;55.50;97562.16;4129871;28;20234;-32
2022/04/01 07:29:32;;;;;;;21.93;18.13;;;;;;;9.15;54.54;97537.53;4130331;28;20225;-32
2022/04/01 07:34:12;;;;;;;19.77;17.23;;;;;;;8.63;56.20;97568.25;4122902;28;20284;-31
2022/04/01 07:36:13;;;;;;;20.17;17.87;;;;;;;8.90;55.47;97582.34;4130336;28;20251;-32
2022/04/01 07:38:16;;;;;;;19.07;16.90;;;;;;;9.08;55.64;97582.59;4129511;28;20238;-31
2022/04/01 07:40:18;;;;;;;20.47;18.10;;;;;;;8.95;55.24;97558.72;4131842;28;20758;-32
2022/04/01 07:42:21;;;;;;;19.63;17.53;;;;;;;8.65;56.90;97598.81;4132343;28;20237;-32
2022/04/01 07:44:24;;;;;;;19.93;16.77;;;;;;;9.29;54.88;97568.31;4143922;28;20255;-32
2022/04/01 07:46:25;;;;;;;19.70;17.70;;;;;;;9.01;55.00;97549.13;4129681;28;20240;-32
2022/04/01 07:48:27;;;;;;;17.67;15.87;;;;;;;8.63;55.91;97602.69;4129829;28;20230;-31
2022/04/01 07:50:29;;;;;;;19.60;17.50;;;;;;;8.88;55.32;97585.22;4129251;28;20249;-30
2022/04/01 07:52:32;;;;;;;19.17;17.07;;;;;;;8.80;56.49;97613.72;4128538;28;20874;-32
2022/04/01 07:54:34;;;;;;;20.60;18.20;;;;;;;9.01;56.21;97589.69;4129284;28;20230;-31
2022/04/01 07:56:36;;;;;;;20.77;17.93;;;;;;;9.07;55.30;97564.22;4129608;28;20280;-31
2022/04/01 07:58:38;;;;;;;19.87;16.87;;;;;;;9.13;55.25;97587.25;4128910;28;20253;-32
2022/04/01 08:00:40;;;;;;;18.73;16.77;;;;;;;8.36;57.96;97605.22;4129820;28;20288;-32
2022/04/01 08:02:42;;;;;;;20.30;18.17;;;;;;;8.94;56.51;97615.38;4129004;28;20619;-32
2022/04/01 08:04:44;;;;;;;20.90;17.43;;;;;;;9.43;54.58;97563.00;4127294;28;20241;-33
2022/04/01 08:06:48;;;;;;;20.27;18.07;;;;;;;9.23;55.18;97566.47;4129751;28;20240;-32
2022/04/01 08:08:50;;;;;;;19.10;17.10;;;;;;;9.48;54.01;97566.66;4129237;28;20642;-32
2022/04/01 08:10:54;;;;;;;19.70;17.63;;;;;;;8.76;54.94;97561.13;4127136;28;20230;-32
2022/04/01 08:12:56;;;;;;;19.80;17.70;;;;;;;7.92;56.23;97577.25;4123937;28;20238;-30
2022/04/01 08:14:58;;;;;;;19.90;17.80;;;;;;;8.12;56.25;97596.72;4126347;28;20234;-33
2022/04/01 08:17:00;;;;;;;18.43;16.53;;;;;;;8.34;56.90;97647.78;4128557;28;20217;-31
2022/04/01 08:19:03;;;;;;;19.20;17.20;;;;;;;8.08;56.92;97629.88;4129295;28;20206;-31
2022/04/01 08:21:05;;;;;;;19.33;17.23;;;;;;;9.28;54.83;97614.44;4129329;28;20300;-32
2022/04/01 08:23:09;;;;;;;18.87;16.97;;;;;;;8.23;55.33;97565.41;4127619;28;20234;-32
2022/04/01 08:25:11;;;;;;;19.70;17.70;;;;;;;8.08;57.30;97623.78;4129283;28;20327;-32
2022/04/01 08:27:14;;;;;;;19.03;17.03;;;;;;;8.41;57.17;97655.75;4129507;28;20682;-32
2022/04/01 08:29:16;;;;;;;19.20;17.10;;;;;;;8.82;55.36;97632.91;4126586;28;20870;-32
2022/04/01 08:31:18;;;;;;;18.17;16.33;;;;;;;8.86;55.04;97620.88;4127613;28;20234;-30
2022/04/01 08:33:20;;;;;;;18.17;16.27;;;;;;;9.41;54.05;97599.53;4129103;28;20272;-29
2022/04/01 08:35:22;;;;;;;18.87;16.90;;;;;;;8.79;55.25;97642.03;4129463;28;20287;-29
2022/04/01 08:37:24;;;;;;;17.83;15.93;;;;;;;8.77;55.04;97652.84;4127082;28;20241;-29
2022/04/01 08:39:26;;;;;;;19.20;17.10;;;;;;;8.80;55.26;97649.00;4129694;28;20891;-29
2022/04/01 08:41:27;;;;;;;18.43;16.53;;;;;;;8.32;55.55;97612.75;4128588;28;20238;-30
2022/04/01 08:43:32;;;;;;;18.30;16.40;;;;;;;8.73;54.82;97637.56;4127208;28;20606;-30
2022/04/01 08:45:37;;;;;;;18.83;16.83;;;;;;;9.21;54.10;97620.72;4129249;28;20789;-29
2022/04/01 08:47:39;;;;;;;16.90;15.17;;;;;;;8.93;55.38;97664.13;4128708;28;20233;-30
2022/04/01 08:49:41;;;;;;;17.80;15.83;;;;;;;8.20;56.56;97680.44;4128543;28;20234;-30
2022/04/01 08:51:43;;;;;;;19.17;17.10;;;;;;;8.60;56.18;97680.69;4128070;28;20265;-30
2022/04/01 08:53:51;;;;;;;17.23;15.43;;;;;;;8.82;54.24;97619.66;4127809;28;20300;-29
2022/04/01 08:55:56;;;;;;;15.60;14.00;;;;;;;9.29;53.76;97644.41;4128390;28;20280;-31
2022/04/01 08:57:57;;;;;;;16.27;14.57;;;;;;;9.08;53.67;97621.53;4128571;28;20670;-29
2022/04/01 09:00:00;;;;;;;17.33;15.53;;;;;;;8.50;54.87;97683.72;4129326;28;20238;-32
2022/04/01 09:02:05;;;;;;;15.07;13.47;;;;;;;8.18;55.73;97708.97;4129033;28;20245;-30
2022/04/01 09:04:37;;;;;;;15.97;14.27;;;;;;;8.23;55.02;97703.09;4128626;28;20759;-30
2022/04/01 09:06:42;;;;;;;16.10;14.40;;;;;;;8.71;54.68;97706.66;4119596;28;20232;-29
2022/04/01 09:08:44;;;;;;;15.47;13.80;;;;;;;7.97;55.81;97691.31;4113811;28;20245;-29
2022/04/01 09:10:57;;;;;;;15.40;13.80;;;;;;;9.07;54.27;97694.94;4125826;28;20226;-29
2022/04/01 09:12:59;;;;;;;17.30;15.00;;;;;;;9.06;54.00;97669.44;4127340;28;20234;-29
2022/04/01 09:15:03;;;;;;;16.80;15.00;;;;;;;7.68;55.46;97660.53;4126411;28;20210;-30
2022/04/01 09:17:05;;;;;;;16.00;14.37;;;;;;;7.79;55.62;97695.22;4122215;28;20301;-32
2022/04/01 09:19:09;;;;;;;17.67;14.47;;;;;;;8.64;54.47;97704.97;4128396;28;20245;-30
2022/04/01 09:21:12;;;;;;;16.43;14.77;;;;;;;8.27;55.02;97728.16;4120346;28;20267;-31
2022/04/01 09:23:22;;;;;;;17.17;15.07;;;;;;;7.86;56.02;97718.28;4122395;28;20230;-31
2022/04/01 09:25:24;;;;;;;15.87;14.20;;;;;;;8.54;54.32;97677.03;4126498;28;20237;-31
2022/04/01 09:27:41;;;;;;;15.90;13.90;;;;;;;8.59;54.56;97700.25;4127590;28;20241;-29
2022/04/01 09:29:43;;;;;;;16.37;14.00;;;;;;;8.49;54.92;97692.69;4128452;28;20625;-29
2022/04/01 09:31:51;;;;;;;15.57;13.97;;;;;;;8.07;56.06;97728.00;4127437;28;20234;-31
2022/04/01 09:33:56;;;;;;;15.30;13.60;;;;;;;8.00;55.78;97714.72;4126486;28;20229;-29
2022/04/01 09:36:07;;;;;;;16.10;14.33;;;;;;;8.16;56.19;97716.28;4128301;28;20238;-31
2022/04/01 09:38:09;;;;;;;15.17;13.03;;;;;;;7.95;55.97;97735.66;4126548;28;20225;-32
2022/04/01 09:40:20;;;;;;;15.73;14.10;;;;;;;7.82;56.38;97709.91;4123329;28;20245;-31
2022/04/01 09:42:21;;;;;;;16.40;13.83;;;;;;;8.18;55.89;97741.53;4127064;28;20238;-30
2022/04/01 09:44:24;;;;;;;14.27;12.77;;;;;;;8.43;55.53;97738.47;4127691;28;20237;-33
2022/04/01 09:46:26;;;;;;;16.77;13.87;;;;;;;8.15;55.71;97741.94;4127713;28;20237;-31